createdAt,value
2024-01-04T00:02:17.142Z,95487.03
2024-01-04T00:04:43.694Z,95480.91
2024-01-04T00:07:10.260Z,95491.13
2024-01-04T00:09:36.656Z,95486.81
2024-01-04T00:12:03.261Z,95501.53
2024-01-04T00:14:29.817Z,95495.63
2024-01-04T00:16:56.571Z,95508.25
2024-01-04T00:19:23.111Z,95520.47
2024-01-04T00:21:49.703Z,95515.25
2024-01-04T00:24:16.142Z,95519.59
2024-01-04T00:26:42.705Z,95514.94
2024-01-04T00:29:09.164Z,95525.53
2024-01-04T00:31:35.619Z,95517.16
2024-01-04T00:34:02.574Z,95522.97
2024-01-04T00:36:29.046Z,95523.41
2024-01-04T00:38:55.553Z,95522.16
2024-01-04T00:41:22.120Z,95526.31
2024-01-04T00:43:48.573Z,95506.63
2024-01-04T00:46:15.107Z,95525.25
2024-01-04T00:48:42.012Z,95518.50
2024-01-04T00:51:08.741Z,95528.81
2024-01-04T00:53:35.662Z,95529.53
2024-01-04T00:56:02.218Z,95531.88
2024-01-04T00:58:28.908Z,95541.72
2024-01-04T01:00:55.325Z,95535.72
2024-01-04T01:03:21.878Z,95531.69
2024-01-04T01:05:48.543Z,95548.22
2024-01-04T01:08:15.109Z,95545.97
2024-01-04T01:10:41.778Z,95539.81
2024-01-04T01:13:08.300Z,95545.78
2024-01-04T01:15:34.719Z,95541.59
2024-01-04T01:18:02.311Z,95542.59
2024-01-04T01:20:29.073Z,95541.41
2024-01-04T01:22:55.698Z,95547.59
2024-01-04T01:25:22.451Z,95561.47
2024-01-04T01:27:48.882Z,95564.59
2024-01-04T01:30:15.498Z,95563.63
2024-01-04T01:32:42.231Z,95567.50
2024-01-04T01:35:09.917Z,95568.38
2024-01-04T01:37:36.383Z,95587.19
2024-01-04T01:40:03.580Z,95589.66
2024-01-04T01:42:30.007Z,95591.41
2024-01-04T01:44:56.615Z,95597.38
2024-01-04T01:47:25.464Z,95599.69
2024-01-04T01:49:52.043Z,95602.38
2024-01-04T01:52:18.611Z,95628.44
2024-01-04T01:54:47.635Z,95618.22
2024-01-04T01:57:15.123Z,95630.44
2024-01-04T01:59:41.804Z,95630.19
2024-01-04T02:02:08.630Z,95628.38
2024-01-04T02:04:35.105Z,95630.84
2024-01-04T02:07:02.166Z,95638.44
2024-01-04T02:09:29.510Z,95644.97
2024-01-04T02:12:07.125Z,95652.53
2024-01-04T02:14:34.379Z,95651.00
2024-01-04T02:17:01.299Z,95656.56
2024-01-04T02:19:28.465Z,95659.44
2024-01-04T02:21:55.070Z,95654.25
2024-01-04T02:24:22.682Z,95654.72
2024-01-04T02:26:49.122Z,95657.78
2024-01-04T02:29:15.614Z,95662.66
2024-01-04T02:31:44.063Z,95664.78
2024-01-04T02:34:10.822Z,95677.88
2024-01-04T02:36:37.411Z,95676.78
2024-01-04T02:39:04.170Z,95679.34
2024-01-04T02:41:30.619Z,95678.97
2024-01-04T02:43:57.391Z,95691.75
2024-01-04T02:46:23.807Z,95697.38
2024-01-04T02:48:50.388Z,95704.97
2024-01-04T02:51:16.922Z,95702.16
2024-01-04T02:53:43.535Z,95709.16
2024-01-04T02:56:10.235Z,95722.09
2024-01-04T02:58:36.752Z,95725.88
2024-01-04T03:01:04.001Z,95744.94
2024-01-04T03:03:30.553Z,95745.56
2024-01-04T03:05:57.476Z,95746.53
2024-01-04T03:08:24.100Z,95754.88
2024-01-04T03:10:50.577Z,95745.00
2024-01-04T03:13:17.058Z,95768.53
2024-01-04T03:15:43.454Z,95753.28
2024-01-04T03:18:09.999Z,95759.69
2024-01-04T03:20:36.559Z,95756.50
2024-01-04T03:23:03.038Z,95766.63
2024-01-04T03:25:29.470Z,95766.94
2024-01-04T03:27:56.175Z,95762.78
2024-01-04T03:30:22.771Z,95768.66
2024-01-04T03:32:49.424Z,95762.28
2024-01-04T03:35:16.518Z,95762.06
2024-01-04T03:37:42.998Z,95757.69
2024-01-04T03:40:09.941Z,95752.69
2024-01-04T03:42:36.663Z,95758.78
2024-01-04T03:45:03.468Z,95755.75
2024-01-04T03:47:30.493Z,95748.81
2024-01-04T03:49:57.391Z,95754.16
2024-01-04T03:52:26.032Z,95764.66
2024-01-04T03:54:52.972Z,95766.69
2024-01-04T03:57:19.535Z,95762.06
2024-01-04T03:59:46.071Z,95770.50
2024-01-04T04:02:12.594Z,95775.47
2024-01-04T04:04:39.089Z,95771.69
2024-01-04T04:07:05.549Z,95779.50
2024-01-04T04:09:32.319Z,95777.06
2024-01-04T04:11:59.052Z,95774.09
2024-01-04T04:14:25.598Z,95784.72
2024-01-04T04:16:51.993Z,95778.44
2024-01-04T04:19:18.502Z,95776.03
2024-01-04T04:21:45.007Z,95776.38
2024-01-04T04:24:11.529Z,95782.88
2024-01-04T04:26:38.172Z,95782.19
2024-01-04T04:29:04.746Z,95782.28
2024-01-04T04:31:31.248Z,95789.88
2024-01-04T04:33:57.895Z,95787.13
2024-01-04T04:36:24.702Z,95789.50
2024-01-04T04:38:51.220Z,95787.69
2024-01-04T04:41:17.955Z,95788.09
2024-01-04T04:43:44.423Z,95794.19
2024-01-04T04:46:12.424Z,95802.78
2024-01-04T04:48:39.177Z,95808.03
2024-01-04T04:51:05.877Z,95812.91
2024-01-04T04:53:32.836Z,95804.03
2024-01-04T04:55:59.453Z,95823.41
2024-01-04T04:58:25.912Z,95829.88
2024-01-04T05:00:52.349Z,95833.19
2024-01-04T05:03:19.019Z,95838.38
2024-01-04T05:05:45.602Z,95836.56
2024-01-04T05:08:12.262Z,95836.03
2024-01-04T05:10:38.815Z,95838.66
2024-01-04T05:13:05.504Z,95844.75
2024-01-04T05:15:31.946Z,95848.75
2024-01-04T05:17:58.830Z,95852.06
2024-01-04T05:20:25.444Z,95866.03
2024-01-04T05:22:51.882Z,95863.53
2024-01-04T05:25:18.425Z,95872.19
2024-01-04T05:27:44.812Z,95880.78
2024-01-04T05:30:11.725Z,95884.47
2024-01-04T05:32:39.090Z,95882.72
2024-01-04T05:35:06.110Z,95892.09
2024-01-04T05:37:32.545Z,95905.28
2024-01-04T05:40:01.110Z,95891.44
2024-01-04T05:42:28.014Z,95898.59
2024-01-04T05:44:54.527Z,95906.03
2024-01-04T05:47:21.074Z,95901.09
2024-01-04T05:49:47.587Z,95904.44
2024-01-04T05:52:14.156Z,95916.59
2024-01-04T05:54:40.595Z,95922.03
2024-01-04T05:57:07.356Z,95915.53
2024-01-04T05:59:33.982Z,95920.94
2024-01-04T06:02:01.242Z,95924.09
2024-01-04T06:04:27.622Z,95930.78
2024-01-04T06:06:57.066Z,95924.25
2024-01-04T06:09:23.726Z,95923.34
2024-01-04T06:11:52.394Z,95936.63
2024-01-04T06:14:19.787Z,95933.63
2024-01-04T06:16:46.608Z,95936.34
2024-01-04T06:19:13.264Z,95940.00
2024-01-04T06:21:39.967Z,95945.19
2024-01-04T06:24:06.401Z,95943.47
2024-01-04T06:26:32.963Z,95951.91
2024-01-04T06:28:59.490Z,95963.22
2024-01-04T06:31:26.023Z,95961.44
2024-01-04T06:33:52.850Z,95977.81
2024-01-04T06:36:19.488Z,95970.56
2024-01-04T06:38:45.991Z,95972.69
2024-01-04T06:41:13.225Z,95972.69
2024-01-04T06:43:39.725Z,95987.94
2024-01-04T06:46:06.281Z,95982.47
2024-01-04T06:48:32.988Z,95993.94
2024-01-04T06:50:59.467Z,95992.03
2024-01-04T06:53:26.377Z,95997.16
2024-01-04T06:55:52.873Z,96004.63
2024-01-04T06:58:19.325Z,96005.50
2024-01-04T07:00:45.966Z,96014.47
2024-01-04T07:03:12.690Z,96011.50
2024-01-04T07:05:39.370Z,96012.03
2024-01-04T07:08:06.197Z,96017.72
2024-01-04T07:10:32.678Z,96013.91
2024-01-04T07:12:59.129Z,96030.78
2024-01-04T07:15:25.906Z,96015.50
2024-01-04T07:17:53.523Z,96016.16
2024-01-04T07:20:22.956Z,96015.13
2024-01-04T07:22:53.472Z,96022.09
2024-01-04T07:25:21.149Z,96012.13
2024-01-04T07:27:50.141Z,96025.31
2024-01-04T07:30:17.229Z,96025.53
2024-01-04T07:32:43.819Z,96035.94
2024-01-04T07:35:16.916Z,96030.25
2024-01-04T07:37:44.889Z,96029.94
2024-01-04T07:40:13.064Z,96042.78
2024-01-04T07:42:39.686Z,96034.81
2024-01-04T07:45:07.526Z,96027.59
2024-01-04T07:47:38.034Z,96030.00
2024-01-04T07:50:05.573Z,96039.94
2024-01-04T07:52:32.205Z,96028.69
2024-01-04T07:54:59.807Z,96034.09
2024-01-04T07:57:27.534Z,96042.44
2024-01-04T07:59:54.419Z,96042.22
2024-01-04T08:02:20.895Z,96052.34
2024-01-04T08:04:47.340Z,96056.50
2024-01-04T08:07:13.875Z,96055.72
2024-01-04T08:09:40.650Z,96062.19
2024-01-04T08:12:10.579Z,96059.47
2024-01-04T08:14:37.084Z,96057.75
2024-01-04T08:17:03.826Z,96066.91
2024-01-04T08:19:31.689Z,96057.50
2024-01-04T08:21:58.154Z,96059.19
2024-01-04T08:24:24.649Z,96062.31
2024-01-04T08:26:51.683Z,96065.06
2024-01-04T08:29:19.206Z,96066.81
2024-01-04T08:31:45.691Z,96067.75
2024-01-04T08:34:12.215Z,96062.34
2024-01-04T08:36:38.713Z,96073.03
2024-01-04T08:39:05.278Z,96076.09
2024-01-04T08:41:31.715Z,96075.13
2024-01-04T08:43:58.097Z,96078.53
2024-01-04T08:46:24.506Z,96081.50
2024-01-04T08:48:51.063Z,96085.47
2024-01-04T08:51:17.598Z,96088.97
2024-01-04T08:53:44.385Z,96087.19
2024-01-04T08:56:11.328Z,96083.91
2024-01-04T08:58:37.797Z,96085.81
2024-01-04T09:01:04.480Z,96077.31
2024-01-04T09:03:32.354Z,96078.81
2024-01-04T09:05:58.869Z,96077.59
2024-01-04T09:08:25.260Z,96080.28
2024-01-04T09:10:52.072Z,96102.88
2024-01-04T09:13:18.740Z,96119.25
2024-01-04T09:15:46.175Z,96120.28
2024-01-04T09:18:13.014Z,96114.34
2024-01-04T09:20:39.601Z,96130.72
2024-01-04T09:23:06.021Z,96136.09
2024-01-04T09:25:32.529Z,96133.38
2024-01-04T09:27:58.986Z,96135.59
2024-01-04T09:30:25.447Z,96135.44
2024-01-04T09:32:52.121Z,96144.03
2024-01-04T09:35:22.389Z,96129.88
2024-01-04T09:37:51.210Z,96131.13
2024-01-04T09:40:18.934Z,96148.53
2024-01-04T09:42:45.556Z,96141.50
2024-01-04T09:45:17.319Z,96150.28
2024-01-04T09:47:45.332Z,96154.94
2024-01-04T09:50:14.567Z,96162.53
2024-01-04T09:52:45.273Z,96148.84
2024-01-04T09:55:13.165Z,96149.91
2024-01-04T09:57:39.546Z,96150.69
2024-01-04T10:00:09.862Z,96152.59
2024-01-04T10:02:41.818Z,96166.31
2024-01-04T10:05:13.984Z,96156.91
2024-01-04T10:07:45.013Z,96168.22
2024-01-04T10:10:20.697Z,96168.50
2024-01-04T10:12:48.549Z,96168.78
2024-01-04T10:15:16.707Z,96167.81
2024-01-04T10:17:47.162Z,96165.88
2024-01-04T10:20:14.721Z,96172.75
2024-01-04T10:22:41.890Z,96181.88
2024-01-04T10:25:10.397Z,96185.72
2024-01-04T10:27:37.113Z,96178.06
2024-01-04T10:30:08.308Z,96191.47
2024-01-04T10:32:35.413Z,96192.22
2024-01-04T10:35:08.008Z,96181.25
2024-01-04T10:37:35.115Z,96193.00
2024-01-04T10:40:04.692Z,96200.81
2024-01-04T10:42:31.648Z,96203.94
2024-01-04T10:44:58.308Z,96201.22
2024-01-04T10:47:25.263Z,96197.84
2024-01-04T10:50:01.271Z,96198.59
2024-01-04T10:52:33.771Z,96205.28
2024-01-04T10:55:01.230Z,96193.19
2024-01-04T10:57:32.454Z,96197.38
2024-01-04T10:59:59.716Z,96196.56
2024-01-04T11:02:27.388Z,96194.03
2024-01-04T11:04:54.864Z,96195.75
2024-01-04T11:07:22.523Z,96198.69
2024-01-04T11:09:50.204Z,96190.78
2024-01-04T11:12:17.327Z,96192.13
2024-01-04T11:14:43.915Z,96209.25
2024-01-04T11:17:29.908Z,96196.38
2024-01-04T11:20:06.468Z,96191.34
2024-01-04T11:22:43.566Z,96186.28
2024-01-04T11:25:21.837Z,96181.69
2024-01-04T11:27:48.881Z,96186.97
2024-01-04T11:30:16.117Z,96179.41
2024-01-04T11:32:45.849Z,96177.63
2024-01-04T11:35:12.924Z,96174.34
2024-01-04T11:37:39.585Z,96179.31
2024-01-04T11:40:08.375Z,96182.13
2024-01-04T11:42:42.384Z,96189.75
2024-01-04T11:45:19.666Z,96188.97
2024-01-04T11:47:49.000Z,96191.72
2024-01-04T11:50:26.250Z,96178.41
2024-01-04T11:53:04.428Z,96177.41
2024-01-04T11:55:31.129Z,96174.41
2024-01-04T11:58:09.905Z,96167.13
2024-01-04T12:00:38.346Z,96158.91
2024-01-04T12:03:24.185Z,96170.22
2024-01-04T12:05:52.872Z,96164.88
2024-01-04T12:08:25.959Z,96158.97
2024-01-04T12:10:54.879Z,96168.59
2024-01-04T12:13:23.352Z,96159.97
2024-01-04T12:15:50.221Z,96172.88
2024-01-04T12:18:21.271Z,96169.06
2024-01-04T12:20:50.173Z,96164.41
2024-01-04T12:23:17.226Z,96158.19
2024-01-04T12:25:44.733Z,96158.94
2024-01-04T12:28:11.485Z,96156.00
2024-01-04T12:30:38.222Z,96154.94
2024-01-04T12:33:05.468Z,96155.25
2024-01-04T12:35:32.085Z,96161.53
2024-01-04T12:38:03.831Z,96164.63
2024-01-04T12:40:41.385Z,96168.84
2024-01-04T12:43:11.607Z,96155.66
2024-01-04T12:45:38.053Z,96162.81
2024-01-04T12:48:06.780Z,96164.72
2024-01-04T12:50:35.656Z,96164.72
2024-01-04T12:53:03.102Z,96166.13
2024-01-04T12:55:29.672Z,96162.28
2024-01-04T12:57:56.284Z,96174.66
2024-01-04T13:00:23.277Z,96168.31
2024-01-04T13:02:49.799Z,96168.03
2024-01-04T13:05:16.341Z,96163.06
2024-01-04T13:07:43.332Z,96157.72
2024-01-04T13:10:10.645Z,96156.72
2024-01-04T13:12:37.814Z,96155.94
2024-01-04T13:15:05.111Z,96162.47
2024-01-04T13:17:32.142Z,96154.44
2024-01-04T13:19:59.299Z,96145.78
2024-01-04T13:22:27.342Z,96150.22
2024-01-04T13:24:54.229Z,96141.81
2024-01-04T13:27:22.539Z,96144.22
2024-01-04T13:29:49.205Z,96147.97
2024-01-04T13:32:17.073Z,96141.00
2024-01-04T13:34:43.705Z,96146.75
2024-01-04T13:37:10.222Z,96138.50
2024-01-04T13:39:36.728Z,96146.06
2024-01-04T13:42:03.317Z,96135.59
2024-01-04T13:44:29.731Z,96139.28
2024-01-04T13:46:56.398Z,96147.38
2024-01-04T13:49:23.013Z,96150.41
2024-01-04T13:51:49.573Z,96148.88
2024-01-04T13:54:16.453Z,96148.34
2024-01-04T13:56:43.276Z,96153.81
2024-01-04T13:59:09.965Z,96162.38
2024-01-04T14:01:36.488Z,96158.91
2024-01-04T14:04:03.068Z,96158.38
2024-01-04T14:06:29.628Z,96151.88
2024-01-04T14:08:57.042Z,96160.84
2024-01-04T14:11:23.762Z,96173.13
2024-01-04T14:13:52.149Z,96170.69
2024-01-04T14:16:18.593Z,96167.03
2024-01-04T14:18:45.400Z,96179.69
2024-01-04T14:21:11.867Z,96183.47
2024-01-04T14:23:38.346Z,96188.22
2024-01-04T14:26:05.012Z,96182.22
2024-01-04T14:28:31.469Z,96179.00
2024-01-04T14:30:58.068Z,96191.69
2024-01-04T14:33:32.099Z,96197.28
2024-01-04T14:36:04.299Z,96200.81
2024-01-04T14:38:31.449Z,96197.69
2024-01-04T14:40:57.930Z,96199.28
2024-01-04T14:43:24.542Z,96199.88
2024-01-04T14:45:51.078Z,96201.53
2024-01-04T14:48:17.636Z,96206.47
2024-01-04T14:50:44.461Z,96202.44
2024-01-04T14:53:11.171Z,96204.84
2024-01-04T14:55:37.738Z,96204.44
2024-01-04T14:58:04.378Z,96208.84
2024-01-04T15:00:30.874Z,96195.84
2024-01-04T15:02:57.412Z,96209.97
2024-01-04T15:05:24.074Z,96208.22
2024-01-04T15:07:50.504Z,96220.25
2024-01-04T15:10:17.006Z,96206.28
2024-01-04T15:12:43.402Z,96204.38
2024-01-04T15:15:16.971Z,96198.44
2024-01-04T15:17:49.990Z,96196.66
2024-01-04T15:20:16.848Z,96193.91
2024-01-04T15:22:43.474Z,96192.91
2024-01-04T15:25:10.092Z,96191.06
2024-01-04T15:27:36.721Z,96189.97
2024-01-04T15:30:06.188Z,96176.16
2024-01-04T15:32:32.670Z,96169.66
2024-01-04T15:34:59.123Z,96170.75
2024-01-04T15:37:31.140Z,96159.31
2024-01-04T15:39:57.625Z,96160.25
2024-01-04T15:42:25.574Z,96149.28
2024-01-04T15:44:52.137Z,96150.41
2024-01-04T15:47:18.671Z,96147.88
2024-01-04T15:49:45.307Z,96157.50
2024-01-04T15:52:11.878Z,96161.06
2024-01-04T15:54:38.718Z,96165.81
2024-01-04T15:57:05.431Z,96165.34
2024-01-04T15:59:31.910Z,96176.78
2024-01-04T16:02:00.011Z,96181.72
2024-01-04T16:04:26.871Z,96183.69
2024-01-04T16:06:54.054Z,96185.44
2024-01-04T16:09:20.638Z,96180.91
2024-01-04T16:11:47.309Z,96184.41
2024-01-04T16:14:13.865Z,96185.50
2024-01-04T16:16:40.300Z,96187.47
2024-01-04T16:19:06.864Z,96188.34
2024-01-04T16:21:33.451Z,96188.66
2024-01-04T16:24:01.311Z,96191.66
2024-01-04T16:26:28.023Z,96191.47
2024-01-04T16:28:54.515Z,96180.84
2024-01-04T16:31:22.969Z,96180.22
2024-01-04T16:33:49.854Z,96186.63
2024-01-04T16:36:16.528Z,96185.13
2024-01-04T16:38:43.117Z,96185.38
2024-01-04T16:41:13.007Z,96186.22
2024-01-04T16:43:40.301Z,96186.84
2024-01-04T16:46:08.341Z,96178.44
2024-01-04T16:48:35.205Z,96167.06
2024-01-04T16:51:01.814Z,96170.06
2024-01-04T16:53:28.614Z,96168.50
2024-01-04T16:55:55.305Z,96169.44
2024-01-04T16:58:21.730Z,96176.63
2024-01-04T17:00:48.507Z,96163.81
2024-01-04T17:03:14.984Z,96175.84
2024-01-04T17:05:42.518Z,96171.69
2024-01-04T17:08:09.255Z,96163.75
2024-01-04T17:10:39.861Z,96173.94
2024-01-04T17:13:08.352Z,96175.00
2024-01-04T17:15:35.841Z,96183.66
2024-01-04T17:18:02.510Z,96186.44
2024-01-04T17:20:29.139Z,96196.97
2024-01-04T17:22:55.542Z,96194.13
2024-01-04T17:25:22.745Z,96202.19
2024-01-04T17:27:49.632Z,96198.38
2024-01-04T17:30:21.001Z,96197.06
2024-01-04T17:32:50.831Z,96196.94
2024-01-04T17:35:18.690Z,96191.88
2024-01-04T17:37:46.342Z,96193.22
2024-01-04T17:40:13.701Z,96184.22
2024-01-04T17:42:40.318Z,96196.03
2024-01-04T17:45:07.266Z,96197.06
2024-01-04T17:47:33.830Z,96193.22
2024-01-04T17:50:00.976Z,96184.38
2024-01-04T17:52:27.533Z,96190.22
2024-01-04T17:54:55.176Z,96182.78
2024-01-04T17:57:24.327Z,96187.88
2024-01-04T17:59:50.876Z,96202.31
2024-01-04T18:02:17.383Z,96193.69
2024-01-04T18:04:44.805Z,96193.34
2024-01-04T18:07:11.479Z,96198.22
2024-01-04T18:09:37.967Z,96197.91
2024-01-04T18:12:04.877Z,96196.94
2024-01-04T18:14:31.360Z,96205.84
2024-01-04T18:16:58.072Z,96197.50
2024-01-04T18:19:24.697Z,96191.69
2024-01-04T18:21:52.070Z,96190.09
2024-01-04T18:24:19.136Z,96188.66
2024-01-04T18:26:45.714Z,96191.56
2024-01-04T18:29:13.208Z,96187.13
2024-01-04T18:31:40.208Z,96176.28
2024-01-04T18:34:07.146Z,96180.59
2024-01-04T18:36:33.828Z,96181.41
2024-01-04T18:39:04.208Z,96183.31
2024-01-04T18:41:31.665Z,96176.31
2024-01-04T18:43:58.158Z,96159.91
2024-01-04T18:46:24.626Z,96168.50
2024-01-04T18:48:52.128Z,96165.94
2024-01-04T18:51:18.749Z,96165.63
2024-01-04T18:53:45.427Z,96154.81
2024-01-04T18:56:11.952Z,96162.94
2024-01-04T18:58:39.386Z,96167.81
2024-01-04T19:01:06.039Z,96159.88
2024-01-04T19:03:32.664Z,96155.66
2024-01-04T19:05:59.318Z,96155.13
2024-01-04T19:08:25.819Z,96157.16
2024-01-04T19:10:52.373Z,96161.84
2024-01-04T19:13:18.801Z,96159.34
2024-01-04T19:15:52.755Z,96163.81
2024-01-04T19:18:25.557Z,96165.06
2024-01-04T19:20:52.181Z,96160.16
2024-01-04T19:23:18.868Z,96153.31
2024-01-04T19:25:45.401Z,96154.34
2024-01-04T19:28:13.281Z,96159.81
2024-01-04T19:30:39.833Z,96149.91
2024-01-04T19:33:06.611Z,96145.53
2024-01-04T19:35:33.115Z,96155.22
2024-01-04T19:38:01.471Z,96154.44
2024-01-04T19:40:27.994Z,96154.44
2024-01-04T19:42:54.425Z,96156.47
2024-01-04T19:45:22.704Z,96163.31
2024-01-04T19:47:49.545Z,96160.91
2024-01-04T19:50:16.151Z,96150.78
2024-01-04T19:52:42.654Z,96151.81
2024-01-04T19:55:13.586Z,96156.47
2024-01-04T19:57:40.992Z,96150.44
2024-01-04T20:00:11.986Z,96156.47
2024-01-04T20:02:40.498Z,96150.69
2024-01-04T20:05:07.970Z,96152.19
2024-01-04T20:07:34.585Z,96146.16
2024-01-04T20:10:01.352Z,96137.72
2024-01-04T20:12:28.148Z,96132.63
2024-01-04T20:14:55.140Z,96131.50
2024-01-04T20:17:21.857Z,96140.41
2024-01-04T20:19:48.335Z,96135.06
2024-01-04T20:22:14.923Z,96132.34
2024-01-04T20:24:42.257Z,96121.06
2024-01-04T20:27:09.528Z,96119.84
2024-01-04T20:29:38.974Z,96119.75
2024-01-04T20:32:05.675Z,96116.59
2024-01-04T20:34:32.332Z,96114.19
2024-01-04T20:36:59.247Z,96114.09
2024-01-04T20:39:25.793Z,96108.75
2024-01-04T20:41:52.503Z,96111.81
2024-01-04T20:44:19.041Z,96110.72
2024-01-04T20:46:45.771Z,96112.09
2024-01-04T20:49:12.696Z,96108.69
2024-01-04T20:51:39.462Z,96113.03
2024-01-04T20:54:07.244Z,96106.63
2024-01-04T20:56:33.974Z,96108.84
2024-01-04T20:59:00.443Z,96112.94
2024-01-04T21:01:26.988Z,96120.22
2024-01-04T21:03:53.626Z,96123.53
2024-01-04T21:06:20.940Z,96127.16
2024-01-04T21:08:48.662Z,96118.72
2024-01-04T21:11:15.942Z,96118.72
2024-01-04T21:13:42.901Z,96126.47
2024-01-04T21:16:09.371Z,96116.00
2024-01-04T21:18:36.098Z,96118.03
2024-01-04T21:21:02.794Z,96106.47
2024-01-04T21:23:29.265Z,96101.13
2024-01-04T21:25:55.941Z,96100.53
2024-01-04T21:28:22.751Z,96103.63
2024-01-04T21:30:49.498Z,96107.38
2024-01-04T21:33:16.062Z,96096.81
2024-01-04T21:35:42.660Z,96100.31
2024-01-04T21:38:09.362Z,96090.66
2024-01-04T21:40:39.233Z,96087.13
2024-01-04T21:43:05.952Z,96093.28
2024-01-04T21:45:32.531Z,96088.50
2024-01-04T21:47:59.034Z,96081.69
2024-01-04T21:50:25.548Z,96093.63
2024-01-04T21:52:52.079Z,96087.81
2024-01-04T21:55:18.648Z,96079.41
2024-01-04T21:57:45.294Z,96085.09
2024-01-04T22:00:12.538Z,96080.75
2024-01-04T22:02:40.868Z,96075.97
2024-01-04T22:05:08.679Z,96079.63
2024-01-04T22:07:35.169Z,96081.19
2024-01-04T22:10:06.576Z,96074.53
2024-01-04T22:12:38.413Z,96075.75
2024-01-04T22:15:05.317Z,96064.50
2024-01-04T22:17:32.021Z,96074.16
2024-01-04T22:19:58.531Z,96069.84
2024-01-04T22:22:25.028Z,96064.88
2024-01-04T22:24:54.343Z,96061.09
2024-01-04T22:27:21.437Z,96060.56
2024-01-04T22:29:48.064Z,96067.94
2024-01-04T22:32:14.592Z,96062.81
2024-01-04T22:34:41.226Z,96059.19
2024-01-04T22:37:07.773Z,96054.97
2024-01-04T22:39:34.218Z,96047.47
2024-01-04T22:42:02.850Z,96046.09
2024-01-04T22:44:29.445Z,96030.75
2024-01-04T22:46:55.862Z,96028.03
2024-01-04T22:49:22.513Z,96024.88
2024-01-04T22:51:49.419Z,96026.56
2024-01-04T22:54:15.975Z,96025.06
2024-01-04T22:56:42.624Z,96016.22
2024-01-04T22:59:09.472Z,96018.25
2024-01-04T23:01:35.936Z,96007.81
2024-01-04T23:04:02.725Z,96009.88
2024-01-04T23:06:29.502Z,96007.81
2024-01-04T23:08:56.032Z,96008.03
2024-01-04T23:11:22.571Z,96002.56
2024-01-04T23:13:48.958Z,96002.16
2024-01-04T23:16:15.606Z,96011.00
2024-01-04T23:18:42.576Z,95994.41
2024-01-04T23:21:09.498Z,95983.84
2024-01-04T23:23:35.968Z,95976.00
2024-01-04T23:26:03.371Z,95976.44
2024-01-04T23:28:29.826Z,95981.78
2024-01-04T23:30:56.373Z,95981.00
2024-01-04T23:33:33.376Z,95975.75
2024-01-04T23:36:07.109Z,95969.88
2024-01-04T23:38:33.564Z,95972.94
2024-01-04T23:41:00.371Z,95967.16
2024-01-04T23:43:26.777Z,95961.94
2024-01-04T23:45:53.654Z,95952.25
2024-01-04T23:48:20.213Z,95942.50
2024-01-04T23:50:46.927Z,95946.00
2024-01-04T23:53:13.353Z,95941.25
2024-01-04T23:55:39.798Z,95948.88
2024-01-04T23:58:06.985Z,95936.59
